Time;durP1;ratioP1;P1;durP2;ratioP2;P2;SDS_P1;SDS_P2;PMS_P1;PMS_P2;Temp;Humidity;BMP_temperature;BMP_pressure;BME280_temperature;BME280_humidity;BME280_pressure;Samples;Min_cycle;Max_cycle;Signal;HPM_P1;HPM_P2
2022/03/30 00:00:36;;;;;;;;;48.00;39.00;;;;;16.05;51.14;100070.59;4979903;28;45411;-69
2022/03/30 00:03:02;;;;;;;;;39.75;35.75;;;;;16.04;51.32;100071.56;4981336;28;45328;-69
2022/03/30 00:05:27;;;;;;;;;47.75;39.00;;;;;16.03;51.36;100067.13;4981081;28;45460;-69
2022/03/30 00:07:54;;;;;;;;;50.25;41.75;;;;;16.01;51.10;100069.94;4976683;28;45666;-69
2022/03/30 00:10:20;;;;;;;;;47.50;39.50;;;;;16.01;51.50;100069.06;4980625;28;45491;-69
2022/03/30 00:12:46;;;;;;;;;48.25;40.25;;;;;15.97;51.32;100056.75;4981003;28;45297;-69
2022/03/30 00:15:11;;;;;;;;;48.50;37.75;;;;;16.00;51.16;100054.72;4980847;28;45382;-69
2022/03/30 00:17:37;;;;;;;;;51.25;42.00;;;;;16.01;51.61;100053.78;4977399;28;45466;-69
2022/03/30 00:20:03;;;;;;;;;47.00;39.25;;;;;16.03;51.63;100057.22;4980306;28;45340;-69
2022/03/30 00:22:28;;;;;;;;;47.75;38.75;;;;;16.01;51.49;100050.22;4980794;28;45296;-69
2022/03/30 00:24:54;;;;;;;;;49.25;40.25;;;;;16.03;51.38;100049.16;4980259;28;45629;-69
2022/03/30 00:27:19;;;;;;;;;48.00;39.25;;;;;16.02;51.39;100051.94;4977457;28;45537;-69
2022/03/30 00:29:45;;;;;;;;;44.25;36.50;;;;;16.02;51.67;100047.44;4978972;28;46869;-69
2022/03/30 00:32:11;;;;;;;;;44.00;34.00;;;;;16.03;51.37;100049.16;4979155;28;45372;-69
2022/03/30 00:34:36;;;;;;;;;48.50;40.50;;;;;16.01;51.40;100048.41;4980374;28;45493;-69
2022/03/30 00:37:02;;;;;;;;;49.75;40.50;;;;;16.05;51.33;100047.22;4978170;28;45495;-69
2022/03/30 00:39:28;;;;;;;;;50.00;41.00;;;;;16.04;51.38;100047.34;4979577;28;46235;-69
2022/03/30 00:41:53;;;;;;;;;49.50;39.50;;;;;16.03;51.50;100046.47;4979281;28;46641;-69
2022/03/30 00:44:19;;;;;;;;;51.00;41.25;;;;;16.05;51.51;100044.53;4980565;28;45447;-69
2022/03/30 00:46:45;;;;;;;;;53.00;43.00;;;;;15.98;51.50;100029.75;4973791;28;45396;-69
2022/03/30 00:49:11;;;;;;;;;51.75;41.50;;;;;16.02;51.44;100027.72;4978884;28;45371;-69
2022/03/30 00:51:37;;;;;;;;;51.00;42.00;;;;;15.99;51.68;100030.59;4980328;28;45465;-69
2022/03/30 00:54:03;;;;;;;;;55.75;45.25;;;;;15.89;51.70;100023.16;4980177;28;45417;-69
2022/03/30 00:56:32;;;;;;;;;49.00;41.75;;;;;15.86;51.99;100011.72;4968896;28;45453;-69
2022/03/30 00:59:00;;;;;;;;;51.75;41.25;;;;;15.87;51.94;100018.81;4975026;28;45375;-69
2022/03/30 01:01:25;;;;;;;;;53.75;43.25;;;;;15.82;51.98;100018.25;4980373;28;46584;-69
2022/03/30 01:03:51;;;;;;;;;53.00;42.50;;;;;15.76;52.29;100005.25;4980327;28;45518;-69
2022/03/30 01:06:16;;;;;;;;;51.50;42.75;;;;;15.73;52.34;100008.94;4977838;28;45477;-69
2022/03/30 01:08:43;;;;;;;;;53.00;44.50;;;;;15.77;52.43;100007.81;4978007;28;45456;-69
2022/03/30 01:11:10;;;;;;;;;52.75;44.25;;;;;15.71;52.54;100000.13;4980250;28;45348;-69
2022/03/30 01:13:35;;;;;;;;;53.25;44.25;;;;;15.67;52.55;99999.47;4980136;28;45341;-69
2022/03/30 01:16:02;;;;;;;;;52.75;43.25;;;;;15.66;52.70;100002.25;4980030;28;45387;-69
2022/03/30 01:18:27;;;;;;;;;57.00;45.25;;;;;15.62;52.68;99990.81;4977187;28;47109;-69
2022/03/30 01:20:53;;;;;;;;;59.75;45.00;;;;;15.61;52.88;99994.47;4980278;28;45309;-69
2022/03/30 01:23:18;;;;;;;;;50.75;40.75;;;;;15.61;52.88;99990.94;4979727;28;45488;-69
2022/03/30 01:25:43;;;;;;;;;52.75;43.25;;;;;15.61;53.22;99993.63;4979402;28;45295;-69
2022/03/30 01:28:09;;;;;;;;;51.50;42.00;;;;;15.59;53.11;99984.78;4970943;28;46284;-69
2022/03/30 01:33:18;;;;;;;;;49.75;40.75;;;;;15.63;53.18;99978.22;4971954;28;45396;-69
2022/03/30 01:35:43;;;;;;;;;51.00;41.50;;;;;15.64;53.03;99979.97;4979766;28;45333;-69
2022/03/30 01:38:09;;;;;;;;;55.50;46.00;;;;;15.65;53.24;99976.28;4976689;28;45571;-69
2022/03/30 01:40:35;;;;;;;;;54.00;43.25;;;;;15.62;53.57;99961.22;4983076;28;45676;-69
2022/03/30 01:43:01;;;;;;;;;56.75;43.50;;;;;15.67;53.13;99966.28;4979891;28;45669;-69
2022/03/30 01:45:27;;;;;;;;;51.25;43.50;;;;;15.65;53.26;99968.22;4979906;28;45537;-69
2022/03/30 01:47:58;;;;;;;;;51.50;42.00;;;;;15.68;53.37;99968.88;4973176;28;45466;-69
2022/03/30 01:50:25;;;;;;;;;52.75;42.50;;;;;15.70;53.58;99966.97;4979582;28;45744;-69
2022/03/30 01:52:52;;;;;;;;;54.25;43.75;;;;;15.69;53.50;99965.25;4979457;28;45404;-69
2022/03/30 01:55:18;;;;;;;;;51.50;42.75;;;;;15.70;53.53;99963.41;4977822;28;45461;-69
2022/03/30 01:57:44;;;;;;;;;51.50;43.00;;;;;15.69;53.82;99957.16;4970047;28;45491;-69
2022/03/30 02:00:12;;;;;;;;;50.25;42.75;;;;;15.70;53.16;99958.91;4982469;28;45873;-69
2022/03/30 02:02:39;;;;;;;;;51.25;42.25;;;;;15.70;53.58;99952.63;4983277;28;45174;-69
2022/03/30 02:05:06;;;;;;;;;57.00;46.25;;;;;15.70;53.57;99948.16;4983082;28;45162;-69
2022/03/30 02:07:31;;;;;;;;;49.00;41.50;;;;;15.76;53.55;99954.97;4978947;28;45648;-69
2022/03/30 02:09:56;;;;;;;;;55.75;45.00;;;;;15.76;53.28;99952.28;4982589;28;45416;-69
2022/03/30 02:12:22;;;;;;;;;54.50;44.50;;;;;15.72;53.44;99940.81;4982976;28;45526;-69
2022/03/30 02:14:51;;;;;;;;;54.25;44.75;;;;;15.75;53.38;99947.81;4982644;28;45549;-69
2022/03/30 02:17:18;;;;;;;;;49.00;40.25;;;;;15.72;53.51;99940.81;4970619;28;46293;-69
2022/03/30 02:19:44;;;;;;;;;52.50;43.50;;;;;15.75;53.56;99942.44;4977968;28;45275;-69
2022/03/30 02:22:09;;;;;;;;;53.50;44.00;;;;;15.72;53.53;99923.81;4982729;28;45465;-69
2022/03/30 02:24:35;;;;;;;;;53.25;44.75;;;;;15.74;53.30;99936.19;4982178;28;45586;-69
2022/03/30 02:27:01;;;;;;;;;48.25;38.75;;;;;15.76;53.39;99927.22;4980269;28;45580;-69
2022/03/30 02:29:26;;;;;;;;;53.00;44.25;;;;;15.74;53.54;99921.88;4982107;28;45378;-69
2022/03/30 02:31:51;;;;;;;;;54.00;44.25;;;;;15.64;53.74;99923.47;4982443;28;45443;-69
2022/03/30 02:34:17;;;;;;;;;50.75;42.25;;;;;15.58;53.43;99919.34;4982133;28;45424;-69
2022/03/30 02:36:43;;;;;;;;;51.25;42.00;;;;;15.59;53.39;99921.09;4978869;28;45270;-69
2022/03/30 02:39:09;;;;;;;;;51.50;43.25;;;;;15.64;53.91;99923.47;4981612;28;45771;-69
2022/03/30 02:41:34;;;;;;;;;51.00;41.75;;;;;15.63;53.84;99919.91;4982551;28;45511;-69
2022/03/30 02:44:00;;;;;;;;;50.50;42.75;;;;;15.65;53.82;99920.69;4982377;28;45442;-69
2022/03/30 02:46:25;;;;;;;;;54.00;42.75;;;;;15.61;53.79;99902.16;4977740;28;46012;-69
2022/03/30 02:48:51;;;;;;;;;53.25;43.50;;;;;15.60;53.90;99908.50;4977944;28;45384;-69
2022/03/30 02:51:16;;;;;;;;;55.75;45.00;;;;;15.65;53.88;99912.63;4982260;28;45312;-69
2022/03/30 02:53:42;;;;;;;;;56.00;43.50;;;;;15.56;54.07;99903.31;4980619;28;45324;-69
2022/03/30 02:56:07;;;;;;;;;54.75;45.00;;;;;15.66;53.80;99908.09;4973343;28;45170;-69
2022/03/30 02:58:34;;;;;;;;;50.25;40.75;;;;;15.62;53.58;99907.44;4973974;28;45601;-69
2022/03/30 03:00:59;;;;;;;;;54.50;44.50;;;;;15.60;53.61;99909.34;4982344;28;45213;-69
2022/03/30 03:03:25;;;;;;;;;55.25;43.75;;;;;15.55;54.14;99906.09;4982143;28;45273;-69
2022/03/30 03:05:51;;;;;;;;;49.25;42.00;;;;;15.49;53.91;99907.38;4981964;28;46107;-69
2022/03/30 03:08:16;;;;;;;;;58.00;46.00;;;;;15.48;54.02;99911.03;4977206;28;45389;-69
2022/03/30 03:10:45;;;;;;;;;62.00;49.50;;;;;15.43;54.40;99906.91;4981828;28;45335;-69
2022/03/30 03:13:11;;;;;;;;;56.25;45.00;;;;;15.42;54.39;99911.44;4981863;28;45441;-69
2022/03/30 03:15:37;;;;;;;;;59.50;47.25;;;;;15.42;54.36;99910.56;4981059;28;46000;-69
2022/03/30 03:18:05;;;;;;;;;57.75;46.00;;;;;15.42;54.55;99911.44;4968417;28;45845;-69
2022/03/30 03:20:32;;;;;;;;;58.50;47.75;;;;;15.37;54.56;99903.66;4981767;28;45364;-69
2022/03/30 03:22:58;;;;;;;;;54.75;46.25;;;;;15.33;54.55;99904.81;4980535;28;45340;-69
2022/03/30 03:25:24;;;;;;;;;61.25;48.00;;;;;15.28;54.92;99903.41;4971562;28;46305;-69
2022/03/30 03:27:50;;;;;;;;;58.00;46.75;;;;;15.25;55.08;99893.72;4966158;28;45402;-69
2022/03/30 03:30:15;;;;;;;;;60.25;47.25;;;;;15.25;54.74;99896.41;4981606;28;45337;-69
2022/03/30 03:32:42;;;;;;;;;59.75;48.00;;;;;15.21;54.81;99892.19;4972372;28;45402;-69
2022/03/30 03:35:13;;;;;;;;;54.25;44.00;;;;;15.18;55.02;99882.53;4981392;28;45408;-69
2022/03/30 03:37:39;;;;;;;;;60.75;46.50;;;;;15.18;54.97;99882.53;4978406;28;45820;-69
2022/03/30 03:40:06;;;;;;;;;58.25;46.50;;;;;15.19;55.13;99889.59;4981431;28;45349;-69
2022/03/30 03:42:33;;;;;;;;;55.25;43.00;;;;;15.16;55.29;99880.88;4981260;28;45260;-69
2022/03/30 03:44:59;;;;;;;;;55.75;46.25;;;;;15.13;55.40;99878.38;4981356;28;45428;-69
2022/03/30 03:47:24;;;;;;;;;55.00;43.50;;;;;15.17;55.33;99886.16;4978887;28;45537;-69
2022/03/30 03:49:50;;;;;;;;;58.50;45.75;;;;;15.18;55.44;99885.22;4981201;28;45510;-69
2022/03/30 03:52:15;;;;;;;;;59.00;46.50;;;;;15.14;55.46;99880.97;4980971;28;45443;-69
2022/03/30 03:54:41;;;;;;;;;59.75;47.00;;;;;15.15;55.38;99887.19;4973412;28;46278;-69
2022/03/30 03:57:07;;;;;;;;;59.75;47.25;;;;;15.13;55.54;99884.63;4969865;28;45448;-69
2022/03/30 03:59:32;;;;;;;;;58.50;46.00;;;;;15.11;55.47;99881.16;4980839;28;45720;-69
2022/03/30 04:01:59;;;;;;;;;62.50;49.00;;;;;15.06;55.95;99863.63;4981128;28;45402;-69
2022/03/30 04:04:24;;;;;;;;;56.25;45.00;;;;;15.10;55.58;99874.09;4981084;28;47249;-69
2022/03/30 04:06:50;;;;;;;;;64.00;50.50;;;;;15.11;55.74;99874.94;4977130;28;45253;-69
2022/03/30 04:09:15;;;;;;;;;58.75;48.00;;;;;15.07;55.81;99879.66;4980548;28;45399;-69
2022/03/30 04:11:40;;;;;;;;;58.25;48.00;;;;;15.03;56.02;99875.44;4981004;28;45298;-69
2022/03/30 04:14:06;;;;;;;;;63.50;52.25;;;;;15.00;55.92;99872.94;4981041;28;46229;-69
2022/03/30 04:16:31;;;;;;;;;59.75;48.50;;;;;15.04;55.70;99882.53;4978406;28;45206;-69
2022/03/30 04:18:56;;;;;;;;;62.00;48.75;;;;;15.04;55.98;99879.84;4980509;28;45626;-69
2022/03/30 04:21:22;;;;;;;;;56.50;43.25;;;;;14.99;56.04;99864.03;4978815;28;45246;-69
2022/03/30 04:23:48;;;;;;;;;63.50;49.75;;;;;15.03;56.09;99875.44;4979990;28;46301;-69
2022/03/30 04:26:14;;;;;;;;;57.50;46.50;;;;;15.04;55.96;99868.25;4979081;28;45285;-69
2022/03/30 04:28:40;;;;;;;;;58.25;48.00;;;;;14.93;55.81;99856.34;4979852;28;45408;-69
2022/03/30 04:31:09;;;;;;;;;63.50;49.00;;;;;15.01;55.90;99870.16;4979511;28;45458;-69
2022/03/30 04:33:35;;;;;;;;;62.75;49.75;;;;;15.01;55.99;99871.97;4989737;28;47512;-69
2022/03/30 04:36:01;;;;;;;;;62.50;48.25;;;;;15.01;55.67;99867.47;4973516;28;45775;-69
2022/03/30 04:38:26;;;;;;;;;63.00;50.00;;;;;15.05;55.93;99864.56;4976681;28;45502;-69
2022/03/30 04:40:51;;;;;;;;;60.75;49.50;;;;;15.05;55.91;99862.78;4980452;28;45568;-69
2022/03/30 04:43:17;;;;;;;;;65.00;51.25;;;;;15.02;56.17;99857.59;4980681;28;45800;-69
2022/03/30 04:45:42;;;;;;;;;57.50;47.25;;;;;15.00;55.99;99846.06;4980332;28;45427;-69
2022/03/30 04:48:07;;;;;;;;;65.25;52.50;;;;;15.10;56.27;99852.59;4973203;28;45387;-69
2022/03/30 04:50:33;;;;;;;;;59.75;48.25;;;;;15.09;56.16;99848.16;4980499;28;46264;-69
2022/03/30 04:52:58;;;;;;;;;63.00;50.50;;;;;15.11;56.19;99845.38;4979374;28;46423;-69
2022/03/30 04:55:24;;;;;;;;;60.25;48.25;;;;;15.14;56.22;99847.88;4977240;28;45341;-69
2022/03/30 04:57:49;;;;;;;;;58.25;47.25;;;;;15.17;56.19;99847.66;4969229;28;45238;-69
2022/03/30 05:00:14;;;;;;;;;64.00;48.50;;;;;15.16;55.81;99840.56;4980167;28;45265;-69
2022/03/30 05:02:40;;;;;;;;;64.00;51.25;;;;;15.19;56.16;99845.72;4978899;28;47413;-69
2022/03/30 05:05:10;;;;;;;;;66.25;53.00;;;;;15.21;56.27;99846.50;4980193;28;45401;-69
2022/03/30 05:07:36;;;;;;;;;61.00;48.25;;;;;15.20;56.02;99836.69;4976425;28;45280;-69
2022/03/30 05:10:05;;;;;;;;;63.75;50.75;;;;;15.15;56.27;99834.31;4979798;28;45339;-70
2022/03/30 05:12:31;;;;;;;;;47.25;41.00;;;;;15.19;55.90;99827.78;4980006;28;46411;-69
2022/03/30 05:14:56;;;;;;;;;68.25;52.00;;;;;15.25;56.10;99836.38;4979883;28;45312;-69
2022/03/30 05:17:21;;;;;;;;;64.00;52.25;;;;;15.23;55.75;99836.50;4977890;28;45454;-69
2022/03/30 05:19:48;;;;;;;;;60.00;48.00;;;;;15.23;55.78;99836.50;4979590;28;45479;-69
2022/03/30 05:22:14;;;;;;;;;62.75;48.75;;;;;15.24;55.55;99837.38;4979890;28;45900;-69
2022/03/30 05:24:40;;;;;;;;;63.50;48.75;;;;;15.25;55.96;99842.66;4978133;28;45486;-69
2022/03/30 05:27:05;;;;;;;;;64.50;51.25;;;;;15.21;55.71;99833.03;4972221;28;45589;-69
2022/03/30 05:29:31;;;;;;;;;59.25;48.00;;;;;15.26;55.61;99836.28;4976264;28;45438;-69
2022/03/30 05:31:57;;;;;;;;;65.50;51.00;;;;;15.25;55.68;99833.69;4978064;28;45505;-69
2022/03/30 05:34:22;;;;;;;;;58.75;48.75;;;;;15.22;55.75;99829.41;4978293;28;45310;-69
2022/03/30 05:36:48;;;;;;;;;63.00;51.00;;;;;15.28;55.90;99841.56;4975622;28;45415;-69
2022/03/30 05:39:14;;;;;;;;;63.00;50.00;;;;;15.26;55.84;99838.97;4982523;28;45530;-69
2022/03/30 05:41:39;;;;;;;;;64.25;49.75;;;;;15.26;55.89;99833.59;4983086;28;45396;-69
2022/03/30 05:44:05;;;;;;;;;59.00;48.00;;;;;15.28;55.81;99839.72;4981430;28;45194;-69
2022/03/30 05:46:30;;;;;;;;;64.25;50.50;;;;;15.28;55.92;99834.34;4972676;28;45408;-69
2022/03/30 05:48:55;;;;;;;;;62.25;49.00;;;;;15.23;55.97;99824.88;4982457;28;45444;-69
2022/03/30 05:51:21;;;;;;;;;61.25;48.50;;;;;15.27;55.94;99837.16;4982754;28;45998;-69
2022/03/30 05:53:47;;;;;;;;;67.00;51.25;;;;;15.28;55.91;99844.25;4982035;28;45356;-69
2022/03/30 05:56:13;;;;;;;;;62.25;49.25;;;;;15.25;55.76;99836.38;4969442;28;45682;-69
2022/03/30 05:58:38;;;;;;;;;64.00;48.50;;;;;15.30;56.23;99850.38;4980461;28;45435;-68
2022/03/30 06:01:04;;;;;;;;;59.00;48.00;;;;;15.30;56.21;99839.63;4982789;28;46271;-69
2022/03/30 06:03:29;;;;;;;;;63.75;51.00;;;;;15.17;56.19;99831.53;4982424;28;45288;-81
2022/03/30 06:05:55;;;;;;;;;63.00;49.75;;;;;15.22;56.36;99839.28;4981292;28;45320;-78
2022/03/30 06:08:20;;;;;;;;;62.75;48.25;;;;;15.24;56.58;99851.66;4970263;28;46161;-78
2022/03/30 06:10:45;;;;;;;;;63.25;50.00;;;;;15.25;56.84;99857.91;4974486;28;46633;-78
2022/03/30 06:13:11;;;;;;;;;64.00;50.00;;;;;15.24;56.96;99856.19;4982722;28;45291;-78
2022/03/30 06:15:38;;;;;;;;;60.25;49.25;;;;;15.19;56.89;99846.59;4982654;28;45305;-77
2022/03/30 06:18:10;;;;;;;;;63.75;49.75;;;;;15.26;56.78;99846.19;4978650;28;45426;-78
2022/03/30 06:20:35;;;;;;;;;64.00;50.25;;;;;15.24;56.94;99842.75;4975832;28;47255;-77
2022/03/30 06:23:01;;;;;;;;;65.00;51.75;;;;;15.29;56.82;99852.22;4981857;28;45290;-79
2022/03/30 06:25:26;;;;;;;;;62.00;50.00;;;;;15.28;56.57;99855.00;4985992;28;45454;-79
2022/03/30 06:27:53;;;;;;;;;62.00;50.00;;;;;15.27;56.98;99856.84;4977662;28;45412;-82
2022/03/30 06:30:19;;;;;;;;;65.25;50.50;;;;;15.29;56.70;99862.13;4980655;28;48231;-82
2022/03/30 06:32:49;;;;;;;;;64.00;50.00;;;;;15.24;56.78;99848.13;4995933;28;45891;-82
2022/03/30 06:35:16;;;;;;;;;64.00;52.25;;;;;15.27;56.95;99864.03;4980928;28;45316;-82
2022/03/30 06:37:41;;;;;;;;;64.75;52.00;;;;;15.27;57.08;99858.66;4973614;28;45575;-81
2022/03/30 06:40:07;;;;;;;;;59.00;48.00;;;;;15.23;57.19;99857.16;4977843;28;45312;-80
2022/03/30 06:42:33;;;;;;;;;60.00;48.50;;;;;15.25;57.14;99861.47;4976620;28;45329;-81
2022/03/30 06:44:58;;;;;;;;;65.00;49.25;;;;;15.22;57.11;99853.59;4982032;28;45744;-81
2022/03/30 06:47:23;;;;;;;;;64.00;51.00;;;;;15.23;57.15;99862.53;4972335;28;45685;-81
2022/03/30 06:49:49;;;;;;;;;62.75;50.25;;;;;15.26;57.32;99859.63;4980576;28;48447;-81
2022/03/30 06:52:14;;;;;;;;;63.00;50.00;;;;;15.26;57.24;99857.78;4981892;28;45376;-81
2022/03/30 06:54:40;;;;;;;;;63.75;47.75;;;;;15.27;57.00;99859.53;4974254;28;45365;-77
2022/03/30 06:57:07;;;;;;;;;63.50;51.00;;;;;15.31;57.21;99869.09;4981430;28;45445;-80
2022/03/30 06:59:32;;;;;;;;;60.00;49.25;;;;;15.32;57.44;99870.84;4977501;28;47051;-81
2022/03/30 07:01:58;;;;;;;;;60.50;49.00;;;;;15.34;57.51;99860.84;4984604;28;45392;-70
2022/03/30 07:04:24;;;;;;;;;63.50;50.75;;;;;15.30;57.27;99853.97;4976022;28;45910;-70
2022/03/30 07:10:35;;;;;;;;;62.25;49.25;;;;;15.34;57.45;99865.38;4955946;28;45455;-69
2022/03/30 07:12:50;;;;;;;;;66.25;52.25;;;;;15.38;57.48;99872.25;4944105;28;45505;-70
2022/03/30 07:15:17;;;;;;;;;60.50;49.75;;;;;15.37;57.51;99867.84;4961077;28;45275;-69
2022/03/30 07:17:54;;;;;;;;;65.00;52.75;;;;;15.35;57.26;99859.00;4978853;28;45332;-70
2022/03/30 07:20:21;;;;;;;;;68.50;54.00;;;;;15.37;57.42;99870.56;4980088;28;45376;-70
2022/03/30 07:22:48;;;;;;;;;69.25;52.25;;;;;15.40;57.54;99856.88;4981215;28;45909;-70
2022/03/30 07:25:15;;;;;;;;;65.00;52.50;;;;;15.42;57.55;99854.97;4973155;28;45316;-70
2022/03/30 07:27:42;;;;;;;;;65.25;53.00;;;;;15.39;57.54;99855.16;4969707;28;45566;-69
2022/03/30 07:30:09;;;;;;;;;64.25;49.25;;;;;15.45;57.67;99867.34;4971125;28;46437;-69
2022/03/30 07:32:39;;;;;;;;;63.25;51.25;;;;;15.45;57.80;99854.78;4983332;28;45471;-69
2022/03/30 07:35:09;;;;;;;;;65.25;52.25;;;;;15.44;57.68;99853.03;4970779;28;45408;-70
2022/03/30 07:37:37;;;;;;;;;66.00;52.75;;;;;15.50;57.47;99865.19;4977090;28;45575;-69
2022/03/30 07:40:05;;;;;;;;;62.50;48.75;;;;;15.50;57.97;99857.13;4979694;28;45554;-73
2022/03/30 07:42:30;;;;;;;;;64.50;51.00;;;;;15.47;58.23;99857.31;4968370;28;45682;-68
2022/03/30 07:44:56;;;;;;;;;65.75;51.75;;;;;15.40;58.14;99862.25;4971265;28;45535;-68
2022/03/30 07:47:22;;;;;;;;;67.00;52.50;;;;;15.34;58.51;99870.75;4967631;28;45572;-69
2022/03/30 07:49:48;;;;;;;;;65.50;51.00;;;;;15.29;58.52;99860.28;4973941;28;45328;-69
2022/03/30 07:52:14;;;;;;;;;68.00;53.75;;;;;15.18;58.66;99863.69;4980070;28;45220;-70
2022/03/30 07:54:41;;;;;;;;;64.50;52.00;;;;;15.08;59.03;99848.25;4981107;28;45161;-70
2022/03/30 07:57:06;;;;;;;;;67.00;52.00;;;;;15.08;59.22;99859.88;4968927;28;45495;-69
2022/03/30 07:59:32;;;;;;;;;64.00;49.25;;;;;15.06;59.45;99860.94;4980201;28;46219;-69
2022/03/30 08:01:58;;;;;;;;;68.50;53.00;;;;;15.07;59.38;99863.53;4971576;28;45356;-69
2022/03/30 08:04:24;;;;;;;;;64.00;51.50;;;;;15.05;59.44;99856.50;4980410;28;45359;-69
2022/03/30 08:06:50;;;;;;;;;59.50;47.50;;;;;15.08;59.79;99854.50;4977382;28;45975;-70
2022/03/30 08:09:16;;;;;;;;;64.50;51.25;;;;;15.01;59.63;99848.66;4980092;28;46182;-69
2022/03/30 08:11:41;;;;;;;;;69.00;53.75;;;;;15.05;59.20;99860.09;4980643;28;45331;-69
2022/03/30 08:14:07;;;;;;;;;61.50;49.75;;;;;14.94;59.45;99855.41;4981005;28;45310;-67
2022/03/30 08:16:33;;;;;;;;;69.00;52.75;;;;;14.98;59.52;99866.81;4978451;28;45485;-68
2022/03/30 08:18:58;;;;;;;;;62.50;50.25;;;;;14.98;59.52;99866.81;4979862;28;46064;-72
2022/03/30 08:24:08;;;;;;;;;65.75;52.00;;;;;14.94;59.74;99868.81;4980599;28;45253;-68
2022/03/30 08:26:33;;;;;;;;;63.25;50.00;;;;;14.88;59.27;99863.00;4976823;28;45893;-68
2022/03/30 08:28:59;;;;;;;;;64.50;51.75;;;;;14.71;59.86;99870.28;4979592;28;45955;-68
2022/03/30 08:31:24;;;;;;;;;63.25;50.50;;;;;14.63;60.37;99875.28;4980459;28;45811;-70
2022/03/30 08:33:50;;;;;;;;;63.00;50.25;;;;;14.59;60.71;99868.41;4979419;28;45384;-72
2022/03/30 08:36:16;;;;;;;;;58.25;47.75;;;;;14.58;60.38;99872.00;4971728;28;45574;-72
2022/03/30 08:38:42;;;;;;;;;67.25;53.00;;;;;14.50;60.48;99864.44;4967850;28;46329;-73
2022/03/30 08:41:07;;;;;;;;;60.00;49.00;;;;;14.44;60.95;99862.13;4979212;28;45442;-73
2022/03/30 08:43:35;;;;;;;;;62.00;50.75;;;;;14.34;60.81;99859.16;4974900;28;45304;-73
2022/03/30 08:46:02;;;;;;;;;66.50;52.25;;;;;14.30;61.31;99863.00;4980542;28;45388;-73
2022/03/30 08:48:28;;;;;;;;;64.75;51.00;;;;;14.25;61.76;99857.06;4975977;28;46840;-72
2022/03/30 08:50:53;;;;;;;;;60.00;48.75;;;;;14.34;62.03;99867.22;4972346;28;45211;-73
2022/03/30 08:53:19;;;;;;;;;65.00;50.50;;;;;14.33;62.17;99862.78;4973679;28;45347;-72
2022/03/30 08:55:45;;;;;;;;;62.00;50.00;;;;;14.39;61.84;99865.09;4977673;28;45477;-73
2022/03/30 08:58:12;;;;;;;;;63.25;50.25;;;;;14.42;62.18;99864.06;4967824;28;45593;-73
2022/03/30 09:00:37;;;;;;;;;64.75;50.75;;;;;14.44;62.24;99868.34;4978215;28;45296;-71
2022/03/30 09:03:04;;;;;;;;;63.50;51.25;;;;;14.49;62.13;99868.06;4966274;28;45393;-72
2022/03/30 09:05:33;;;;;;;;;62.50;50.00;;;;;14.53;62.35;99863.38;4974018;28;45241;-73
2022/03/30 09:08:12;;;;;;;;;68.25;54.50;;;;;14.55;61.88;99865.00;4972945;28;46073;-73
2022/03/30 09:10:40;;;;;;;;;65.00;51.50;;;;;14.56;62.19;99872.09;4979637;28;45385;-73
2022/03/30 09:13:07;;;;;;;;;64.75;50.75;;;;;14.56;62.04;99864.03;4978660;28;45425;-73
2022/03/30 09:15:34;;;;;;;;;63.50;49.50;;;;;14.57;62.42;99863.09;4979500;28;45325;-70
2022/03/30 09:18:01;;;;;;;;;64.50;51.75;;;;;14.61;62.00;99878.06;4975746;28;45415;-73
2022/03/30 09:20:27;;;;;;;;;63.75;50.50;;;;;14.64;61.95;99874.34;4977992;28;45833;-73
2022/03/30 09:22:55;;;;;;;;;61.50;49.00;;;;;14.62;61.92;99868.22;4979537;28;46391;-73
2022/03/30 09:25:29;;;;;;;;;59.25;48.00;;;;;14.66;62.29;99869.72;4976969;28;45484;-73
2022/03/30 09:27:56;;;;;;;;;64.00;50.50;;;;;14.70;62.46;99871.28;4972077;28;45670;-73
2022/03/30 09:30:24;;;;;;;;;61.00;48.50;;;;;14.72;61.97;99872.03;4979521;28;45440;-73
2022/03/30 09:32:52;;;;;;;;;64.25;50.75;;;;;14.67;62.66;99859.84;4978792;28;45364;-73
2022/03/30 09:35:25;;;;;;;;;62.25;48.25;;;;;14.73;62.11;99854.94;4979130;28;45464;-73
2022/03/30 09:38:01;;;;;;;;;59.00;47.75;;;;;14.77;61.64;99852.94;4970460;28;46193;-73
2022/03/30 09:40:44;;;;;;;;;63.75;51.00;;;;;14.86;62.11;99863.09;4979209;28;45295;-73
2022/03/30 09:43:17;;;;;;;;;60.50;49.75;;;;;14.89;61.44;99853.97;4979658;28;45363;-73
2022/03/30 09:45:44;;;;;;;;;61.75;48.75;;;;;14.85;61.76;99856.00;4979854;28;45443;-73
2022/03/30 09:48:14;;;;;;;;;58.25;45.50;;;;;14.89;61.51;99857.50;4976205;28;45281;-73
2022/03/30 09:50:44;;;;;;;;;66.25;51.75;;;;;14.86;61.44;99854.16;4979506;28;45823;-73
2022/03/30 09:53:15;;;;;;;;;60.00;49.25;;;;;14.80;61.70;99855.41;4979404;28;45377;-73
2022/03/30 09:56:14;;;;;;;;;65.00;52.00;;;;;14.87;61.98;99863.94;4979221;28;45475;-73
2022/03/30 09:58:40;;;;;;;;;63.75;50.00;;;;;14.87;62.28;99859.44;4962393;28;45445;-78
2022/03/30 10:01:19;;;;;;;;;61.00;49.25;;;;;14.94;61.66;99862.59;4979184;28;45804;-74
2022/03/30 10:03:52;;;;;;;;;63.75;51.25;;;;;14.99;62.24;99865.84;4979380;28;45426;-75
2022/03/30 10:06:23;;;;;;;;;60.25;48.00;;;;;14.99;61.77;99855.09;4974656;28;45664;-78
2022/03/30 10:08:51;;;;;;;;;62.25;49.25;;;;;15.04;61.81;99858.34;4973198;28;45277;-74
2022/03/30 10:11:17;;;;;;;;;64.00;51.00;;;;;15.00;61.97;99846.94;4979050;28;45350;-74
2022/03/30 10:13:48;;;;;;;;;66.25;53.00;;;;;15.05;61.46;99853.81;4978087;28;45336;-74
2022/03/30 10:16:17;;;;;;;;;63.75;51.00;;;;;14.93;61.42;99850.13;4963510;28;45253;-74
2022/03/30 10:18:42;;;;;;;;;63.25;49.75;;;;;14.96;62.05;99849.91;4968491;28;45313;-74
2022/03/30 10:21:29;;;;;;;;;63.00;49.00;;;;;14.98;61.85;99845.31;4981774;28;45373;-74
2022/03/30 10:24:21;;;;;;;;;63.50;50.50;;;;;15.04;61.21;99850.28;4978544;28;45452;-74
2022/03/30 10:27:04;;;;;;;;;66.75;53.75;;;;;15.01;60.82;99845.97;4948954;28;45417;-74
2022/03/30 10:29:31;;;;;;;;;67.25;51.25;;;;;14.94;61.12;99846.47;4981894;28;45242;-73
2022/03/30 10:32:17;;;;;;;;;65.75;52.00;;;;;14.88;60.86;99850.41;4981939;28;45514;-74
2022/03/30 10:34:56;;;;;;;;;64.75;51.50;;;;;14.83;61.15;99855.22;4975288;28;45339;-73
2022/03/30 10:37:28;;;;;;;;;70.50;54.25;;;;;14.70;61.17;99828.31;4971591;28;46395;-74
2022/03/30 10:40:03;;;;;;;;;69.50;54.00;;;;;14.71;60.87;99840.75;4980415;28;45410;-74
2022/03/30 10:42:54;;;;;;;;;67.75;53.00;;;;;14.63;61.60;99832.31;4992919;28;45899;-75
2022/03/30 10:45:28;;;;;;;;;70.75;55.25;;;;;14.66;61.96;99832.13;4986041;28;45372;-74
2022/03/30 10:48:09;;;;;;;;;66.25;52.25;;;;;14.67;61.04;99835.66;4968007;28;45337;-74
2022/03/30 10:50:36;;;;;;;;;66.00;53.00;;;;;14.66;61.67;99828.59;4980590;28;47131;-75
2022/03/30 10:53:01;;;;;;;;;64.75;51.25;;;;;14.61;61.60;99820.81;4981961;28;45230;-74
2022/03/30 10:55:33;;;;;;;;;65.00;52.25;;;;;14.66;61.94;99816.00;4980576;28;45317;-74
2022/03/30 10:58:02;;;;;;;;;65.25;52.25;;;;;14.71;61.61;99813.03;4977014;28;45464;-74
2022/03/30 11:00:38;;;;;;;;;69.00;54.00;;;;;14.76;61.55;99814.44;4978574;28;45447;-74
2022/03/30 11:03:12;;;;;;;;;64.75;51.00;;;;;14.85;61.14;99815.69;4979478;28;45534;-74
2022/03/30 11:05:38;;;;;;;;;66.50;52.25;;;;;14.86;61.55;99800.44;4981374;28;45478;-74
2022/03/30 11:08:25;;;;;;;;;66.00;52.75;;;;;14.95;61.32;99802.50;4980307;28;45528;-74
2022/03/30 11:10:51;;;;;;;;;64.50;51.00;;;;;15.01;61.09;99802.09;4981730;28;46203;-74
2022/03/30 11:13:24;;;;;;;;;65.50;52.00;;;;;15.01;59.82;99805.66;4981813;28;45348;-73
2022/03/30 11:16:04;;;;;;;;;67.25;52.75;;;;;14.99;60.33;99798.66;4981832;28;45221;-72
2022/03/30 11:18:31;;;;;;;;;64.50;52.25;;;;;14.92;60.56;99787.47;4981598;28;45443;-73
2022/03/30 11:21:08;;;;;;;;;69.50;53.75;;;;;14.99;60.77;99798.66;4981563;28;46471;-74
2022/03/30 11:23:35;;;;;;;;;61.75;49.75;;;;;14.92;60.39;99797.34;4968921;28;45423;-78
2022/03/30 11:26:01;;;;;;;;;65.25;50.00;;;;;14.87;60.04;99794.06;4969239;28;45435;-73